sensor_id;sensor_type;location;lat;lon;timestamp;P1;durP1;ratioP1;P2;durP2;ratioP2
80944;SDS011;70400;50.934;11.590;2023-08-31T00:00:25;1.88;;;1.00;;
80944;SDS011;70400;50.934;11.590;2023-08-31T00:01:16;2.88;;;1.30;;
80944;SDS011;70400;50.934;11.590;2023-08-31T00:02:08;1.98;;;1.00;;
80944;SDS011;70400;50.934;11.590;2023-08-31T00:03:00;2.03;;;1.00;;
80944;SDS011;70400;50.934;11.590;2023-08-31T00:03:51;1.65;;;0.90;;
80944;SDS011;70400;50.934;11.590;2023-08-31T00:04:42;2.80;;;0.93;;
80944;SDS011;70400;50.934;11.590;2023-08-31T00:05:32;2.00;;;1.10;;
80944;SDS011;70400;50.934;11.590;2023-08-31T00:06:26;2.00;;;1.02;;
80944;SDS011;70400;50.934;11.590;2023-08-31T00:07:17;4.50;;;1.17;;
80944;SDS011;70400;50.934;11.590;2023-08-31T00:08:08;2.42;;;1.05;;
80944;SDS011;70400;50.934;11.590;2023-08-31T00:09:50;2.00;;;0.80;;
80944;SDS011;70400;50.934;11.590;2023-08-31T00:10:41;3.75;;;0.98;;
80944;SDS011;70400;50.934;11.590;2023-08-31T00:11:32;2.15;;;0.90;;
80944;SDS011;70400;50.934;11.590;2023-08-31T00:12:23;2.33;;;1.00;;
80944;SDS011;70400;50.934;11.590;2023-08-31T00:13:14;1.65;;;0.90;;
80944;SDS011;70400;50.934;11.590;2023-08-31T00:14:05;3.00;;;0.90;;
80944;SDS011;70400;50.934;11.590;2023-08-31T00:14:56;2.58;;;1.10;;
80944;SDS011;70400;50.934;11.590;2023-08-31T00:15:47;2.28;;;1.13;;
80944;SDS011;70400;50.934;11.590;2023-08-31T00:16:38;1.17;;;0.80;;
80944;SDS011;70400;50.934;11.590;2023-08-31T00:17:29;5.22;;;1.70;;
80944;SDS011;70400;50.934;11.590;2023-08-31T00:18:20;2.58;;;1.17;;
80944;SDS011;70400;50.934;11.590;2023-08-31T00:19:12;1.33;;;0.88;;
80944;SDS011;70400;50.934;11.590;2023-08-31T00:20:06;3.42;;;1.10;;
80944;SDS011;70400;50.934;11.590;2023-08-31T00:20:58;1.52;;;0.75;;
80944;SDS011;70400;50.934;11.590;2023-08-31T00:21:48;0.90;;;0.80;;
80944;SDS011;70400;50.934;11.590;2023-08-31T00:22:39;1.60;;;0.80;;
80944;SDS011;70400;50.934;11.590;2023-08-31T00:23:30;2.65;;;1.08;;
80944;SDS011;70400;50.934;11.590;2023-08-31T00:24:21;2.42;;;1.10;;
80944;SDS011;70400;50.934;11.590;2023-08-31T00:25:18;2.28;;;0.82;;
80944;SDS011;70400;50.934;11.590;2023-08-31T00:26:09;1.80;;;0.90;;
80944;SDS011;70400;50.934;11.590;2023-08-31T00:27:00;1.17;;;0.80;;
80944;SDS011;70400;50.934;11.590;2023-08-31T00:27:52;2.92;;;1.00;;
80944;SDS011;70400;50.934;11.590;2023-08-31T00:28:44;2.65;;;1.08;;
80944;SDS011;70400;50.934;11.590;2023-08-31T00:29:35;1.95;;;1.17;;
80944;SDS011;70400;50.934;11.590;2023-08-31T00:30:29;1.30;;;0.80;;
80944;SDS011;70400;50.934;11.590;2023-08-31T00:31:20;3.90;;;1.10;;
80944;SDS011;70400;50.934;11.590;2023-08-31T00:32:12;1.88;;;0.95;;
80944;SDS011;70400;50.934;11.590;2023-08-31T00:33:04;2.72;;;1.05;;
80944;SDS011;70400;50.934;11.590;2023-08-31T00:33:54;1.33;;;0.73;;
80944;SDS011;70400;50.934;11.590;2023-08-31T00:34:45;2.08;;;1.00;;
80944;SDS011;70400;50.934;11.590;2023-08-31T00:35:36;2.08;;;0.93;;
80944;SDS011;70400;50.934;11.590;2023-08-31T00:36:27;2.40;;;1.05;;
80944;SDS011;70400;50.934;11.590;2023-08-31T00:37:18;2.05;;;0.90;;
80944;SDS011;70400;50.934;11.590;2023-08-31T00:38:12;2.65;;;0.90;;
80944;SDS011;70400;50.934;11.590;2023-08-31T00:39:05;2.33;;;1.02;;
80944;SDS011;70400;50.934;11.590;2023-08-31T00:39:56;1.48;;;0.90;;
80944;SDS011;70400;50.934;11.590;2023-08-31T00:40:47;1.70;;;0.93;;
80944;SDS011;70400;50.934;11.590;2023-08-31T00:41:39;6.22;;;1.30;;
80944;SDS011;70400;50.934;11.590;2023-08-31T00:42:30;2.75;;;1.00;;
80944;SDS011;70400;50.934;11.590;2023-08-31T00:43:21;1.73;;;1.05;;
80944;SDS011;70400;50.934;11.590;2023-08-31T00:44:12;1.70;;;0.80;;
80944;SDS011;70400;50.934;11.590;2023-08-31T00:45:03;2.53;;;0.90;;
80944;SDS011;70400;50.934;11.590;2023-08-31T00:45:56;1.98;;;1.13;;
80944;SDS011;70400;50.934;11.590;2023-08-31T00:46:49;3.45;;;0.88;;
80944;SDS011;70400;50.934;11.590;2023-08-31T00:47:40;3.17;;;1.17;;
80944;SDS011;70400;50.934;11.590;2023-08-31T00:48:30;2.20;;;1.15;;
80944;SDS011;70400;50.934;11.590;2023-08-31T00:49:22;2.50;;;1.10;;
80944;SDS011;70400;50.934;11.590;2023-08-31T00:51:04;2.65;;;1.05;;
80944;SDS011;70400;50.934;11.590;2023-08-31T00:51:57;2.08;;;1.10;;
80944;SDS011;70400;50.934;11.590;2023-08-31T00:52:48;2.28;;;1.08;;
80944;SDS011;70400;50.934;11.590;2023-08-31T00:53:38;2.35;;;1.30;;
80944;SDS011;70400;50.934;11.590;2023-08-31T00:54:30;2.90;;;1.05;;
80944;SDS011;70400;50.934;11.590;2023-08-31T00:55:21;2.33;;;1.30;;
80944;SDS011;70400;50.934;11.590;2023-08-31T00:56:13;3.20;;;0.95;;
80944;SDS011;70400;50.934;11.590;2023-08-31T00:57:04;2.53;;;1.15;;
80944;SDS011;70400;50.934;11.590;2023-08-31T00:57:54;2.53;;;1.33;;
80944;SDS011;70400;50.934;11.590;2023-08-31T00:58:46;3.50;;;1.25;;
80944;SDS011;70400;50.934;11.590;2023-08-31T00:59:37;2.05;;;1.13;;
80944;SDS011;70400;50.934;11.590;2023-08-31T01:02:07;2.42;;;0.90;;
80944;SDS011;70400;50.934;11.590;2023-08-31T01:03:17;1.88;;;1.00;;
80944;SDS011;70400;50.934;11.590;2023-08-31T01:10:40;1.48;;;0.80;;
80944;SDS011;70400;50.934;11.590;2023-08-31T01:12:59;1.65;;;0.90;;
80944;SDS011;70400;50.934;11.590;2023-08-31T01:13:57;1.70;;;0.82;;
80944;SDS011;70400;50.934;11.590;2023-08-31T01:15:05;2.30;;;1.10;;
80944;SDS011;70400;50.934;11.590;2023-08-31T01:16:53;2.38;;;1.27;;
80944;SDS011;70400;50.934;11.590;2023-08-31T01:17:50;1.90;;;1.10;;
80944;SDS011;70400;50.934;11.590;2023-08-31T01:18:45;3.40;;;1.00;;
80944;SDS011;70400;50.934;11.590;2023-08-31T01:21:20;2.17;;;1.00;;
80944;SDS011;70400;50.934;11.590;2023-08-31T01:22:03;1.15;;;0.75;;
80944;SDS011;70400;50.934;11.590;2023-08-31T01:23:06;2.35;;;1.20;;
80944;SDS011;70400;50.934;11.590;2023-08-31T01:24:06;2.17;;;0.93;;
80944;SDS011;70400;50.934;11.590;2023-08-31T01:24:59;2.53;;;1.15;;
80944;SDS011;70400;50.934;11.590;2023-08-31T01:25:54;2.15;;;1.10;;
80944;SDS011;70400;50.934;11.590;2023-08-31T01:26:45;2.45;;;1.35;;
80944;SDS011;70400;50.934;11.590;2023-08-31T01:28:28;3.97;;;1.10;;
80944;SDS011;70400;50.934;11.590;2023-08-31T01:29:19;2.35;;;1.20;;
80944;SDS011;70400;50.934;11.590;2023-08-31T01:30:10;2.28;;;1.00;;
80944;SDS011;70400;50.934;11.590;2023-08-31T01:31:04;2.97;;;1.30;;
80944;SDS011;70400;50.934;11.590;2023-08-31T01:31:56;3.40;;;1.15;;
80944;SDS011;70400;50.934;11.590;2023-08-31T01:32:47;2.10;;;1.25;;
80944;SDS011;70400;50.934;11.590;2023-08-31T01:33:38;2.05;;;1.10;;
80944;SDS011;70400;50.934;11.590;2023-08-31T01:34:29;3.97;;;1.13;;
80944;SDS011;70400;50.934;11.590;2023-08-31T01:36:20;2.50;;;1.20;;
80944;SDS011;70400;50.934;11.590;2023-08-31T01:38:54;1.58;;;0.95;;
80944;SDS011;70400;50.934;11.590;2023-08-31T01:39:54;1.67;;;1.15;;
80944;SDS011;70400;50.934;11.590;2023-08-31T01:40:52;2.75;;;1.08;;
80944;SDS011;70400;50.934;11.590;2023-08-31T01:41:49;2.50;;;1.30;;
80944;SDS011;70400;50.934;11.590;2023-08-31T01:42:46;4.57;;;1.30;;
80944;SDS011;70400;50.934;11.590;2023-08-31T01:43:37;5.68;;;1.40;;
80944;SDS011;70400;50.934;11.590;2023-08-31T01:44:32;2.08;;;1.05;;
80944;SDS011;70400;50.934;11.590;2023-08-31T01:45:24;2.53;;;1.15;;
80944;SDS011;70400;50.934;11.590;2023-08-31T01:46:16;3.13;;;1.08;;
80944;SDS011;70400;50.934;11.590;2023-08-31T01:47:07;2.35;;;1.20;;
80944;SDS011;70400;50.934;11.590;2023-08-31T01:47:59;2.13;;;1.10;;
80944;SDS011;70400;50.934;11.590;2023-08-31T01:48:50;1.98;;;1.20;;
80944;SDS011;70400;50.934;11.590;2023-08-31T01:49:41;3.05;;;1.55;;
80944;SDS011;70400;50.934;11.590;2023-08-31T01:50:34;2.63;;;1.10;;
80944;SDS011;70400;50.934;11.590;2023-08-31T01:51:24;2.30;;;1.20;;
80944;SDS011;70400;50.934;11.590;2023-08-31T01:52:15;2.03;;;1.10;;
80944;SDS011;70400;50.934;11.590;2023-08-31T01:53:06;1.90;;;1.10;;
80944;SDS011;70400;50.934;11.590;2023-08-31T01:53:57;2.08;;;1.00;;
80944;SDS011;70400;50.934;11.590;2023-08-31T01:55:39;2.38;;;1.20;;
80944;SDS011;70400;50.934;11.590;2023-08-31T01:56:30;2.65;;;1.30;;
80944;SDS011;70400;50.934;11.590;2023-08-31T01:57:22;1.30;;;0.90;;
80944;SDS011;70400;50.934;11.590;2023-08-31T01:58:28;3.38;;;1.20;;
80944;SDS011;70400;50.934;11.590;2023-08-31T01:59:19;1.98;;;1.20;;
80944;SDS011;70400;50.934;11.590;2023-08-31T02:00:10;3.70;;;1.17;;
80944;SDS011;70400;50.934;11.590;2023-08-31T02:01:05;2.25;;;1.20;;
80944;SDS011;70400;50.934;11.590;2023-08-31T02:01:56;2.25;;;1.02;;
80944;SDS011;70400;50.934;11.590;2023-08-31T02:02:47;4.07;;;1.20;;
80944;SDS011;70400;50.934;11.590;2023-08-31T02:03:38;3.88;;;1.25;;
80944;SDS011;70400;50.934;11.590;2023-08-31T02:04:29;2.03;;;1.20;;
80944;SDS011;70400;50.934;11.590;2023-08-31T02:05:20;2.58;;;1.10;;
80944;SDS011;70400;50.934;11.590;2023-08-31T02:06:11;2.05;;;1.25;;
80944;SDS011;70400;50.934;11.590;2023-08-31T02:08:46;3.47;;;2.13;;
80944;SDS011;70400;50.934;11.590;2023-08-31T02:09:40;2.42;;;1.40;;
80944;SDS011;70400;50.934;11.590;2023-08-31T02:10:31;2.15;;;1.20;;
80944;SDS011;70400;50.934;11.590;2023-08-31T02:11:22;2.90;;;1.27;;
80944;SDS011;70400;50.934;11.590;2023-08-31T02:12:17;2.67;;;1.17;;
80944;SDS011;70400;50.934;11.590;2023-08-31T02:13:09;3.08;;;1.10;;
80944;SDS011;70400;50.934;11.590;2023-08-31T02:14:00;2.70;;;1.30;;
80944;SDS011;70400;50.934;11.590;2023-08-31T02:14:51;2.22;;;1.20;;
80944;SDS011;70400;50.934;11.590;2023-08-31T02:15:42;2.28;;;1.23;;
80944;SDS011;70400;50.934;11.590;2023-08-31T02:16:34;1.95;;;1.10;;
80944;SDS011;70400;50.934;11.590;2023-08-31T02:17:25;3.40;;;1.13;;
80944;SDS011;70400;50.934;11.590;2023-08-31T02:18:16;3.80;;;1.38;;
80944;SDS011;70400;50.934;11.590;2023-08-31T02:19:07;2.22;;;1.40;;
80944;SDS011;70400;50.934;11.590;2023-08-31T02:20:00;1.63;;;1.02;;
80944;SDS011;70400;50.934;11.590;2023-08-31T02:20:53;2.88;;;1.30;;
80944;SDS011;70400;50.934;11.590;2023-08-31T02:21:44;3.03;;;1.17;;
80944;SDS011;70400;50.934;11.590;2023-08-31T02:22:36;2.20;;;1.30;;
80944;SDS011;70400;50.934;11.590;2023-08-31T02:23:29;4.28;;;1.30;;
80944;SDS011;70400;50.934;11.590;2023-08-31T02:24:20;3.22;;;1.30;;
80944;SDS011;70400;50.934;11.590;2023-08-31T02:25:11;1.90;;;1.13;;
80944;SDS011;70400;50.934;11.590;2023-08-31T02:26:03;2.83;;;1.27;;
80944;SDS011;70400;50.934;11.590;2023-08-31T02:26:53;4.28;;;1.40;;
80944;SDS011;70400;50.934;11.590;2023-08-31T02:27:44;2.03;;;1.20;;
80944;SDS011;70400;50.934;11.590;2023-08-31T02:28:35;3.40;;;1.25;;
80944;SDS011;70400;50.934;11.590;2023-08-31T02:29:27;2.53;;;1.25;;
80944;SDS011;70400;50.934;11.590;2023-08-31T02:30:18;4.07;;;1.38;;
80944;SDS011;70400;50.934;11.590;2023-08-31T02:31:09;7.55;;;1.40;;
80944;SDS011;70400;50.934;11.590;2023-08-31T02:32:05;4.07;;;1.58;;
80944;SDS011;70400;50.934;11.590;2023-08-31T02:32:56;2.08;;;1.15;;
80944;SDS011;70400;50.934;11.590;2023-08-31T02:33:47;2.83;;;1.40;;
80944;SDS011;70400;50.934;11.590;2023-08-31T02:34:39;3.15;;;1.27;;
80944;SDS011;70400;50.934;11.590;2023-08-31T02:35:29;4.25;;;1.30;;
80944;SDS011;70400;50.934;11.590;2023-08-31T02:36:20;5.70;;;2.45;;
80944;SDS011;70400;50.934;11.590;2023-08-31T02:37:11;3.15;;;1.35;;
80944;SDS011;70400;50.934;11.590;2023-08-31T02:38:02;3.80;;;1.30;;
80944;SDS011;70400;50.934;11.590;2023-08-31T02:38:53;2.53;;;1.20;;
80944;SDS011;70400;50.934;11.590;2023-08-31T02:39:45;2.88;;;1.35;;
80944;SDS011;70400;50.934;11.590;2023-08-31T02:40:36;3.70;;;1.58;;
80944;SDS011;70400;50.934;11.590;2023-08-31T02:41:30;2.67;;;1.45;;
80944;SDS011;70400;50.934;11.590;2023-08-31T02:42:21;4.88;;;1.50;;
80944;SDS011;70400;50.934;11.590;2023-08-31T02:43:13;4.45;;;1.42;;
80944;SDS011;70400;50.934;11.590;2023-08-31T02:44:04;3.95;;;1.52;;
80944;SDS011;70400;50.934;11.590;2023-08-31T02:44:55;2.53;;;1.52;;
80944;SDS011;70400;50.934;11.590;2023-08-31T02:45:46;2.28;;;1.20;;
80944;SDS011;70400;50.934;11.590;2023-08-31T02:46:37;6.85;;;1.40;;
80944;SDS011;70400;50.934;11.590;2023-08-31T02:47:28;3.42;;;1.40;;
80944;SDS011;70400;50.934;11.590;2023-08-31T02:48:19;2.75;;;1.33;;
80944;SDS011;70400;50.934;11.590;2023-08-31T02:49:10;3.95;;;1.42;;
80944;SDS011;70400;50.934;11.590;2023-08-31T02:50:01;8.63;;;1.50;;
80944;SDS011;70400;50.934;11.590;2023-08-31T02:50:52;3.13;;;1.40;;
80944;SDS011;70400;50.934;11.590;2023-08-31T02:51:44;2.92;;;1.48;;
80944;SDS011;70400;50.934;11.590;2023-08-31T02:52:40;4.20;;;1.48;;
80944;SDS011;70400;50.934;11.590;2023-08-31T02:53:31;2.83;;;1.50;;
80944;SDS011;70400;50.934;11.590;2023-08-31T02:54:22;2.13;;;1.13;;
80944;SDS011;70400;50.934;11.590;2023-08-31T02:55:12;2.83;;;1.50;;
80944;SDS011;70400;50.934;11.590;2023-08-31T02:56:04;3.88;;;1.40;;
80944;SDS011;70400;50.934;11.590;2023-08-31T02:56:55;2.25;;;1.10;;
80944;SDS011;70400;50.934;11.590;2023-08-31T02:57:46;3.70;;;1.50;;
80944;SDS011;70400;50.934;11.590;2023-08-31T02:58:36;2.22;;;1.10;;
80944;SDS011;70400;50.934;11.590;2023-08-31T02:59:30;5.38;;;1.50;;
80944;SDS011;70400;50.934;11.590;2023-08-31T03:00:20;3.47;;;1.63;;
80944;SDS011;70400;50.934;11.590;2023-08-31T03:01:14;3.30;;;1.52;;
80944;SDS011;70400;50.934;11.590;2023-08-31T03:02:10;2.30;;;1.50;;
80944;SDS011;70400;50.934;11.590;2023-08-31T03:03:01;2.60;;;1.38;;
80944;SDS011;70400;50.934;11.590;2023-08-31T03:03:52;4.68;;;1.40;;
80944;SDS011;70400;50.934;11.590;2023-08-31T03:04:44;4.10;;;1.98;;
80944;SDS011;70400;50.934;11.590;2023-08-31T03:05:35;5.00;;;1.80;;
80944;SDS011;70400;50.934;11.590;2023-08-31T03:06:26;5.50;;;1.65;;
80944;SDS011;70400;50.934;11.590;2023-08-31T03:07:17;3.53;;;1.50;;
80944;SDS011;70400;50.934;11.590;2023-08-31T03:08:10;4.45;;;1.50;;
80944;SDS011;70400;50.934;11.590;2023-08-31T03:09:01;4.75;;;1.20;;
80944;SDS011;70400;50.934;11.590;2023-08-31T03:09:52;3.95;;;1.80;;
80944;SDS011;70400;50.934;11.590;2023-08-31T03:10:45;2.83;;;1.52;;
80944;SDS011;70400;50.934;11.590;2023-08-31T03:11:37;2.88;;;1.50;;
80944;SDS011;70400;50.934;11.590;2023-08-31T03:12:28;3.65;;;1.55;;
80944;SDS011;70400;50.934;11.590;2023-08-31T03:13:19;3.00;;;1.60;;
80944;SDS011;70400;50.934;11.590;2023-08-31T03:14:10;3.78;;;1.40;;
80944;SDS011;70400;50.934;11.590;2023-08-31T03:15:01;3.05;;;1.65;;
80944;SDS011;70400;50.934;11.590;2023-08-31T03:15:52;2.47;;;1.58;;
80944;SDS011;70400;50.934;11.590;2023-08-31T03:16:43;7.13;;;2.03;;
80944;SDS011;70400;50.934;11.590;2023-08-31T03:17:34;5.30;;;1.60;;
80944;SDS011;70400;50.934;11.590;2023-08-31T03:18:25;5.38;;;1.65;;
80944;SDS011;70400;50.934;11.590;2023-08-31T03:19:16;2.92;;;1.23;;
80944;SDS011;70400;50.934;11.590;2023-08-31T03:20:07;2.90;;;1.70;;
80944;SDS011;70400;50.934;11.590;2023-08-31T03:20:57;2.83;;;1.55;;
80944;SDS011;70400;50.934;11.590;2023-08-31T03:21:49;5.03;;;1.60;;
80944;SDS011;70400;50.934;11.590;2023-08-31T03:22:40;3.15;;;1.70;;
80944;SDS011;70400;50.934;11.590;2023-08-31T03:23:31;4.68;;;2.17;;
80944;SDS011;70400;50.934;11.590;2023-08-31T03:24:21;5.28;;;1.73;;
80944;SDS011;70400;50.934;11.590;2023-08-31T03:25:13;2.85;;;1.50;;
80944;SDS011;70400;50.934;11.590;2023-08-31T03:26:08;3.80;;;1.60;;
80944;SDS011;70400;50.934;11.590;2023-08-31T03:26:59;3.13;;;1.63;;
80944;SDS011;70400;50.934;11.590;2023-08-31T03:27:50;2.85;;;1.58;;
80944;SDS011;70400;50.934;11.590;2023-08-31T03:28:41;4.03;;;2.10;;
80944;SDS011;70400;50.934;11.590;2023-08-31T03:29:32;3.40;;;1.80;;
80944;SDS011;70400;50.934;11.590;2023-08-31T03:30:23;4.18;;;1.85;;
80944;SDS011;70400;50.934;11.590;2023-08-31T03:31:14;4.30;;;2.05;;
80944;SDS011;70400;50.934;11.590;2023-08-31T03:32:05;3.58;;;2.10;;
80944;SDS011;70400;50.934;11.590;2023-08-31T03:32:56;2.80;;;1.70;;
80944;SDS011;70400;50.934;11.590;2023-08-31T03:33:47;3.22;;;1.70;;
80944;SDS011;70400;50.934;11.590;2023-08-31T03:34:38;4.65;;;1.98;;
80944;SDS011;70400;50.934;11.590;2023-08-31T03:35:29;3.25;;;1.80;;
80944;SDS011;70400;50.934;11.590;2023-08-31T03:36:22;5.72;;;2.03;;
80944;SDS011;70400;50.934;11.590;2023-08-31T03:37:14;4.55;;;2.10;;
80944;SDS011;70400;50.934;11.590;2023-08-31T03:38:05;2.50;;;1.65;;
80944;SDS011;70400;50.934;11.590;2023-08-31T03:38:58;4.15;;;1.77;;
80944;SDS011;70400;50.934;11.590;2023-08-31T03:39:49;3.15;;;1.83;;
80944;SDS011;70400;50.934;11.590;2023-08-31T03:40:42;2.85;;;1.67;;
80944;SDS011;70400;50.934;11.590;2023-08-31T03:41:35;3.00;;;1.63;;
80944;SDS011;70400;50.934;11.590;2023-08-31T03:42:29;3.03;;;1.63;;
80944;SDS011;70400;50.934;11.590;2023-08-31T03:43:20;3.60;;;1.77;;
80944;SDS011;70400;50.934;11.590;2023-08-31T03:44:11;3.55;;;1.50;;
80944;SDS011;70400;50.934;11.590;2023-08-31T03:45:04;3.28;;;1.67;;
80944;SDS011;70400;50.934;11.590;2023-08-31T03:45:56;3.40;;;1.83;;
80944;SDS011;70400;50.934;11.590;2023-08-31T03:46:47;3.50;;;1.40;;
80944;SDS011;70400;50.934;11.590;2023-08-31T03:47:39;3.92;;;1.90;;
80944;SDS011;70400;50.934;11.590;2023-08-31T03:48:29;5.03;;;1.85;;
80944;SDS011;70400;50.934;11.590;2023-08-31T03:49:20;3.88;;;1.85;;
80944;SDS011;70400;50.934;11.590;2023-08-31T03:50:11;4.40;;;1.92;;
80944;SDS011;70400;50.934;11.590;2023-08-31T03:51:02;2.85;;;1.83;;
80944;SDS011;70400;50.934;11.590;2023-08-31T03:51:53;3.05;;;1.65;;
80944;SDS011;70400;50.934;11.590;2023-08-31T03:52:44;3.58;;;2.22;;
80944;SDS011;70400;50.934;11.590;2023-08-31T03:53:35;6.63;;;2.15;;
80944;SDS011;70400;50.934;11.590;2023-08-31T03:54:26;7.47;;;2.08;;
80944;SDS011;70400;50.934;11.590;2023-08-31T03:55:17;4.70;;;1.70;;
80944;SDS011;70400;50.934;11.590;2023-08-31T03:56:08;2.53;;;1.58;;
80944;SDS011;70400;50.934;11.590;2023-08-31T03:56:59;3.85;;;1.95;;
80944;SDS011;70400;50.934;11.590;2023-08-31T03:57:50;5.45;;;2.33;;
80944;SDS011;70400;50.934;11.590;2023-08-31T03:58:45;4.65;;;1.70;;
80944;SDS011;70400;50.934;11.590;2023-08-31T03:59:35;3.30;;;1.80;;
80944;SDS011;70400;50.934;11.590;2023-08-31T04:00:26;3.22;;;1.85;;
80944;SDS011;70400;50.934;11.590;2023-08-31T04:01:17;4.43;;;2.25;;
80944;SDS011;70400;50.934;11.590;2023-08-31T04:02:09;2.92;;;1.73;;
80944;SDS011;70400;50.934;11.590;2023-08-31T04:03:00;4.20;;;1.85;;
80944;SDS011;70400;50.934;11.590;2023-08-31T04:03:52;3.72;;;1.80;;
80944;SDS011;70400;50.934;11.590;2023-08-31T04:04:43;3.03;;;1.90;;
80944;SDS011;70400;50.934;11.590;2023-08-31T04:05:33;3.72;;;2.03;;
80944;SDS011;70400;50.934;11.590;2023-08-31T04:06:26;2.92;;;1.70;;
80944;SDS011;70400;50.934;11.590;2023-08-31T04:07:19;5.53;;;1.95;;
80944;SDS011;70400;50.934;11.590;2023-08-31T04:08:09;4.10;;;2.00;;
80944;SDS011;70400;50.934;11.590;2023-08-31T04:09:00;4.88;;;2.08;;
80944;SDS011;70400;50.934;11.590;2023-08-31T04:09:52;3.47;;;1.83;;
80944;SDS011;70400;50.934;11.590;2023-08-31T04:10:42;3.63;;;1.80;;
80944;SDS011;70400;50.934;11.590;2023-08-31T04:11:34;2.97;;;1.55;;
80944;SDS011;70400;50.934;11.590;2023-08-31T04:12:26;4.20;;;2.22;;
80944;SDS011;70400;50.934;11.590;2023-08-31T04:13:17;4.32;;;2.00;;
80944;SDS011;70400;50.934;11.590;2023-08-31T04:14:09;4.82;;;1.77;;
80944;SDS011;70400;50.934;11.590;2023-08-31T04:15:00;3.05;;;1.92;;
80944;SDS011;70400;50.934;11.590;2023-08-31T04:15:54;3.67;;;2.00;;
80944;SDS011;70400;50.934;11.590;2023-08-31T04:16:45;4.10;;;1.77;;
80944;SDS011;70400;50.934;11.590;2023-08-31T04:17:40;4.00;;;1.90;;
80944;SDS011;70400;50.934;11.590;2023-08-31T04:18:30;3.88;;;2.28;;
80944;SDS011;70400;50.934;11.590;2023-08-31T04:19:21;3.70;;;1.52;;
80944;SDS011;70400;50.934;11.590;2023-08-31T04:20:12;3.75;;;2.00;;
80944;SDS011;70400;50.934;11.590;2023-08-31T04:21:03;3.45;;;2.22;;
80944;SDS011;70400;50.934;11.590;2023-08-31T04:21:54;3.67;;;1.80;;
80944;SDS011;70400;50.934;11.590;2023-08-31T04:22:45;3.90;;;1.75;;
80944;SDS011;70400;50.934;11.590;2023-08-31T04:23:36;3.75;;;1.80;;
80944;SDS011;70400;50.934;11.590;2023-08-31T04:24:27;5.70;;;2.10;;
80944;SDS011;70400;50.934;11.590;2023-08-31T04:25:18;4.50;;;1.90;;
80944;SDS011;70400;50.934;11.590;2023-08-31T04:26:12;4.97;;;1.83;;
80944;SDS011;70400;50.934;11.590;2023-08-31T04:27:04;4.63;;;1.92;;
80944;SDS011;70400;50.934;11.590;2023-08-31T04:27:55;2.88;;;1.60;;
80944;SDS011;70400;50.934;11.590;2023-08-31T04:28:46;2.95;;;1.70;;
80944;SDS011;70400;50.934;11.590;2023-08-31T04:29:37;5.45;;;2.30;;
80944;SDS011;70400;50.934;11.590;2023-08-31T04:30:28;4.60;;;1.90;;
80944;SDS011;70400;50.934;11.590;2023-08-31T04:31:19;2.63;;;1.45;;
80944;SDS011;70400;50.934;11.590;2023-08-31T04:32:10;3.25;;;1.83;;
80944;SDS011;70400;50.934;11.590;2023-08-31T04:33:01;3.50;;;1.73;;
80944;SDS011;70400;50.934;11.590;2023-08-31T04:33:52;6.07;;;2.05;;
80944;SDS011;70400;50.934;11.590;2023-08-31T04:34:46;4.72;;;1.80;;
80944;SDS011;70400;50.934;11.590;2023-08-31T04:35:37;6.18;;;2.10;;
80944;SDS011;70400;50.934;11.590;2023-08-31T04:36:28;3.88;;;2.20;;
80944;SDS011;70400;50.934;11.590;2023-08-31T04:37:20;3.58;;;1.75;;
80944;SDS011;70400;50.934;11.590;2023-08-31T04:38:11;3.05;;;1.88;;
80944;SDS011;70400;50.934;11.590;2023-08-31T04:39:02;6.13;;;2.10;;
80944;SDS011;70400;50.934;11.590;2023-08-31T04:40:44;7.40;;;2.33;;
80944;SDS011;70400;50.934;11.590;2023-08-31T04:41:35;4.60;;;2.00;;
80944;SDS011;70400;50.934;11.590;2023-08-31T04:42:26;5.22;;;1.95;;
80944;SDS011;70400;50.934;11.590;2023-08-31T04:43:18;3.00;;;1.83;;
80944;SDS011;70400;50.934;11.590;2023-08-31T04:44:09;3.55;;;1.80;;
80944;SDS011;70400;50.934;11.590;2023-08-31T04:46:42;4.50;;;1.70;;
80944;SDS011;70400;50.934;11.590;2023-08-31T04:47:33;3.90;;;2.05;;
80944;SDS011;70400;50.934;11.590;2023-08-31T04:48:24;3.38;;;1.90;;
80944;SDS011;70400;50.934;11.590;2023-08-31T04:49:15;4.13;;;1.95;;
80944;SDS011;70400;50.934;11.590;2023-08-31T04:50:06;3.92;;;1.85;;
80944;SDS011;70400;50.934;11.590;2023-08-31T04:50:58;6.88;;;2.17;;
80944;SDS011;70400;50.934;11.590;2023-08-31T04:51:49;5.85;;;2.08;;
80944;SDS011;70400;50.934;11.590;2023-08-31T04:52:40;4.97;;;2.38;;
80944;SDS011;70400;50.934;11.590;2023-08-31T04:53:31;5.85;;;2.30;;
80944;SDS011;70400;50.934;11.590;2023-08-31T04:54:22;5.10;;;1.90;;
80944;SDS011;70400;50.934;11.590;2023-08-31T04:55:13;5.03;;;2.25;;
80944;SDS011;70400;50.934;11.590;2023-08-31T04:56:04;5.68;;;2.42;;
80944;SDS011;70400;50.934;11.590;2023-08-31T04:56:55;3.53;;;2.03;;
80944;SDS011;70400;50.934;11.590;2023-08-31T04:57:46;4.35;;;2.17;;
80944;SDS011;70400;50.934;11.590;2023-08-31T04:58:37;5.65;;;2.30;;
80944;SDS011;70400;50.934;11.590;2023-08-31T04:59:27;5.20;;;2.38;;
80944;SDS011;70400;50.934;11.590;2023-08-31T05:01:10;3.25;;;2.10;;
80944;SDS011;70400;50.934;11.590;2023-08-31T05:02:00;5.75;;;2.10;;
80944;SDS011;70400;50.934;11.590;2023-08-31T05:02:51;3.17;;;1.85;;
80944;SDS011;70400;50.934;11.590;2023-08-31T05:03:42;3.15;;;2.00;;
80944;SDS011;70400;50.934;11.590;2023-08-31T05:04:33;4.97;;;2.13;;
80944;SDS011;70400;50.934;11.590;2023-08-31T05:05:24;2.92;;;1.75;;
80944;SDS011;70400;50.934;11.590;2023-08-31T05:06:15;3.40;;;1.90;;
80944;SDS011;70400;50.934;11.590;2023-08-31T05:07:06;5.72;;;2.05;;
80944;SDS011;70400;50.934;11.590;2023-08-31T05:07:57;4.43;;;2.00;;
80944;SDS011;70400;50.934;11.590;2023-08-31T05:09:39;4.18;;;1.77;;
80944;SDS011;70400;50.934;11.590;2023-08-31T05:10:30;4.07;;;1.80;;
80944;SDS011;70400;50.934;11.590;2023-08-31T05:11:21;4.93;;;2.00;;
80944;SDS011;70400;50.934;11.590;2023-08-31T05:12:12;4.75;;;2.22;;
80944;SDS011;70400;50.934;11.590;2023-08-31T05:13:02;4.53;;;2.03;;
80944;SDS011;70400;50.934;11.590;2023-08-31T05:13:54;4.35;;;2.17;;
80944;SDS011;70400;50.934;11.590;2023-08-31T05:14:45;7.15;;;2.60;;
80944;SDS011;70400;50.934;11.590;2023-08-31T05:15:36;4.20;;;2.35;;
80944;SDS011;70400;50.934;11.590;2023-08-31T05:16:26;6.03;;;2.38;;
80944;SDS011;70400;50.934;11.590;2023-08-31T05:17:17;6.97;;;2.30;;
80944;SDS011;70400;50.934;11.590;2023-08-31T05:18:08;3.40;;;1.95;;
80944;SDS011;70400;50.934;11.590;2023-08-31T05:18:59;5.65;;;2.28;;
80944;SDS011;70400;50.934;11.590;2023-08-31T05:19:50;5.70;;;2.33;;
80944;SDS011;70400;50.934;11.590;2023-08-31T05:20:44;5.93;;;2.38;;
80944;SDS011;70400;50.934;11.590;2023-08-31T05:21:36;10.63;;;2.67;;
80944;SDS011;70400;50.934;11.590;2023-08-31T05:22:27;3.95;;;2.78;;
80944;SDS011;70400;50.934;11.590;2023-08-31T05:23:18;5.72;;;2.40;;
80944;SDS011;70400;50.934;11.590;2023-08-31T05:24:09;5.00;;;2.10;;
80944;SDS011;70400;50.934;11.590;2023-08-31T05:25:00;6.18;;;2.40;;
80944;SDS011;70400;50.934;11.590;2023-08-31T05:25:51;5.47;;;2.45;;
80944;SDS011;70400;50.934;11.590;2023-08-31T05:26:42;6.00;;;2.53;;
80944;SDS011;70400;50.934;11.590;2023-08-31T05:27:35;4.32;;;2.40;;
80944;SDS011;70400;50.934;11.590;2023-08-31T05:28:25;6.57;;;2.60;;
80944;SDS011;70400;50.934;11.590;2023-08-31T05:29:16;5.75;;;2.28;;
80944;SDS011;70400;50.934;11.590;2023-08-31T05:30:07;3.38;;;2.25;;
80944;SDS011;70400;50.934;11.590;2023-08-31T05:31:00;3.53;;;2.25;;